Flight Track Log - Related Links

Times and Time Zones

All times are in EDT time to prevent confusion due to time zone crossing. See the AAL1326 flight status page for this flight to view local times or setup timezone preferences in your user account.


Time Position Orientation Groundspeed Altitude Reporting Facility
EDT Latitude Longitude Course Direction KTS MPH feet Rate Location/Type
Sun 04:28:00 PM 39.4692 -94.4910 41° Northeast  Level FlightAware Approximate
Sun 04:28:32 PM 39.1530 -94.7110 41° Northeast 263 303 6,400  Level FlightAware ADS-B
Sun 04:28:42 PM 39.1510 -94.6940 99° East 281 323 6,700 2,200 Climbing FlightAware ADS-B
Sun 04:29:02 PM 39.1620 -94.6630 65° Northeast 287 330 7,500 2,600 Climbing FlightAware ADS-B
Sun 04:29:12 PM 39.1730 -94.6530 35° Northeast 284 327 8,000 2,700 Climbing FlightAware ADS-B
Sun 04:29:42 PM 39.2080 -94.6300 27° Northeast 292 336 9,300 2,657 Climbing FlightAware ADS-B
Sun 04:30:22 PM 39.2570 -94.5990 26° Northeast 310 357 11,100 2,259 Climbing FlightAware ADS-B
Sun 04:31:07 PM 39.3180 -94.5600 26° Northeast 347 399 12,500 2,188 Climbing FlightAware ADS-B
Sun 04:31:47 PM 39.3780 -94.5200 27° Northeast 370 426 14,200 2,753 Climbing FlightAware ADS-B
Sun 04:32:32 PM 39.4520 -94.4730 26° Northeast 388 447 16,400 2,965 Climbing FlightAware ADS-B
Sun 04:33:12 PM 39.5100 -94.4230 34° Northeast 396 456 18,400 2,925 Climbing FlightAware ADS-B
Sun 04:33:52 PM 39.5630 -94.3530 46° Northeast 403 464 20,300 2,612 Climbing FlightAware ADS-B
Sun 04:34:37 PM 39.6210 -94.2740 46° Northeast 414 476 22,100 2,259 Climbing FlightAware ADS-B
Sun 04:35:17 PM 39.6740 -94.2030 46° Northeast 424 488 23,500 2,118 Climbing FlightAware ADS-B
Sun 04:36:02 PM 39.7380 -94.1170 46° Northeast 433 498 25,100 2,471 Climbing FlightAware ADS-B
Sun 04:36:42 PM 39.7900 -94.0450 47° Northeast 426 490 27,000 2,612 Climbing FlightAware ADS-B
Sun 04:37:27 PM 39.8510 -93.9610 47° Northeast 422 486 28,800 2,329 Climbing FlightAware ADS-B
Sun 04:38:07 PM 39.9030 -93.8840 49° Northeast 424 488 30,300 2,250 Climbing FlightAware ADS-B
Sun 04:38:47 PM 39.9350 -93.7900 66° East 426 490 31,800 1,835 Climbing FlightAware ADS-B
Sun 04:39:32 PM 39.9640 -93.6800 71° East 423 487 32,900 847 Climbing FlightAware ADS-B
Sun 04:40:12 PM 39.9900 -93.5840 71° East 422 486 33,000 75 Climbing FlightAware ADS-B
Sun 04:40:52 PM 40.0160 -93.4880 70° East 421 484 33,000  Level FlightAware ADS-B
Sun 04:41:37 PM 40.0440 -93.3840 71° East 422 486 33,000  Level FlightAware ADS-B
Sun 04:42:17 PM 40.0700 -93.2860 71° East 422 486 33,000  Level FlightAware ADS-B
Sun 04:42:57 PM 40.0960 -93.1910 70° East 422 486 33,000  Level FlightAware ADS-B
Sun 04:43:42 PM 40.1260 -93.0780 71° East 421 484 33,000  Level FlightAware ADS-B
Sun 04:44:22 PM 40.1500 -92.9830 72° East 422 486 33,000  Level FlightAware ADS-B
Sun 04:45:02 PM 40.1760 -92.8860 71° East 423 487 33,000  Level FlightAware ADS-B
Sun 04:45:47 PM 40.2040 -92.7800 71° East 426 490 33,000  Level FlightAware ADS-B
Sun 04:46:27 PM 40.2270 -92.6910 71° East 428 493 33,000  Level FlightAware ADS-B
Sun 04:47:07 PM 40.2540 -92.5840 72° East 430 495 33,000  Level FlightAware ADS-B
Sun 04:48:07 PM 40.2940 -92.4330 71° East 431 496 33,000  Level FlightAware ADS-B
Sun 04:48:57 PM 40.3250 -92.3120 71° East 427 491 33,000  Level FlightAware ADS-B
Sun 04:49:52 PM 40.3580 -92.1820 72° East 424 488 33,000  Level FlightAware ADS-B
Sun 04:50:42 PM 40.3850 -92.0790 71° East 424 488 33,000  Level FlightAware ADS-B
Sun 04:51:22 PM 40.4140 -91.9630 72° East 423 487 33,000  Level FlightAware ADS-B
Sun 04:52:02 PM 40.4390 -91.8630 72° East 423 487 33,000  Level FlightAware ADS-B
Sun 04:52:47 PM 40.4660 -91.7550 72° East 423 487 33,000  Level FlightAware ADS-B
Sun 04:53:32 PM 40.4940 -91.6450 71° East 423 487 33,000  Level FlightAware ADS-B
Sun 04:54:07 PM 40.5160 -91.5560 72° East 422 486 33,000  Level FlightAware ADS-B
Sun 04:54:52 PM 40.5420 -91.4500 72° East 421 484 33,000  Level FlightAware ADS-B
Sun 04:55:37 PM 40.5750 -91.3410 68° East 416 479 33,000  Level FlightAware ADS-B
Sun 04:56:32 PM 40.6170 -91.2200 65° Northeast 416 479 33,000  Level FlightAware ADS-B
Sun 04:57:17 PM 40.6530 -91.1120 66° East 415 478 33,000  Level FlightAware ADS-B
Sun 04:57:57 PM 40.6840 -91.0260 65° Northeast 416 479 33,000  Level FlightAware ADS-B
Sun 04:58:37 PM 40.7160 -90.9280 67° East 414 476 33,000  Level FlightAware ADS-B
Sun 04:59:22 PM 40.7520 -90.8230 66° East 414 476 33,000  Level FlightAware ADS-B
Sun 05:00:02 PM 40.7810 -90.7360 66° East 415 478 33,000  Level FlightAware ADS-B
Sun 05:00:42 PM 40.8140 -90.6390 66° East 415 478 33,000  Level FlightAware ADS-B
Sun 05:01:27 PM 40.8490 -90.5320 67° East 414 476 33,000 -353 Level FlightAware ADS-B
Sun 05:02:07 PM 40.8790 -90.4440 66° East 412 474 32,500 -918 Descending FlightAware ADS-B
Sun 05:02:52 PM 40.9140 -90.3380 66° East 414 476 31,700 -1,271 Descending FlightAware ADS-B
Sun 05:03:32 PM 40.9440 -90.2460 67° East 415 478 30,700 -1,412 Descending FlightAware ADS-B
Sun 05:04:17 PM 40.9780 -90.1440 66° East 418 481 29,700 -1,412 Descending FlightAware ADS-B
Sun 05:04:57 PM 41.0100 -90.0480 66° East 419 482 28,700 -1,575 Descending FlightAware ADS-B
Sun 05:05:37 PM 41.0410 -89.9520 67° East 425 489 27,600 -1,553 Descending FlightAware ADS-B
Sun 05:06:22 PM 41.0770 -89.8440 66° East 427 491 26,500 -1,482 Descending FlightAware ADS-B
Sun 05:07:02 PM 41.1080 -89.7480 67° East 434 499 25,500 -1,275 Descending FlightAware ADS-B
Sun 05:07:42 PM 41.1380 -89.6530 67° East 416 479 24,800 -1,271 Descending FlightAware ADS-B
Sun 05:08:27 PM 41.1750 -89.5490 65° Northeast 393 452 23,700 -1,624 Descending FlightAware ADS-B
Sun 05:09:07 PM 41.2100 -89.4640 61° Northeast 395 455 22,500 -1,906 Descending FlightAware ADS-B
Sun 05:09:52 PM 41.2480 -89.3690 62° Northeast 390 449 21,000 -1,906 Descending FlightAware ADS-B
Sun 05:10:32 PM 41.2820 -89.2870 61° Northeast 381 438 19,800 -1,800 Descending FlightAware ADS-B
Sun 05:11:12 PM 41.3140 -89.2070 62° Northeast 373 429 18,600 -2,047 Descending FlightAware ADS-B
Sun 05:11:57 PM 41.3510 -89.1130 62° Northeast 366 421 16,900 -2,188 Descending FlightAware ADS-B
Sun 05:12:37 PM 41.3830 -89.0330 62° Northeast 362 417 15,500 -1,906 Descending FlightAware ADS-B
Sun 05:13:22 PM 41.4170 -88.9490 62° Northeast 348 400 14,200 -1,765 Descending FlightAware ADS-B
Sun 05:14:02 PM 41.4470 -88.8730 62° Northeast 339 390 13,000 -1,725 Descending FlightAware ADS-B
Sun 05:14:42 PM 41.4760 -88.8000 62° Northeast 338 389 11,900 -1,341 Descending FlightAware ADS-B
Sun 05:15:27 PM 41.5080 -88.7180 62° Northeast 334 384 11,100 -565 Descending FlightAware ADS-B
Sun 05:16:07 PM 41.5360 -88.6460 63° Northeast 330 380 11,100  Level FlightAware ADS-B
Sun 05:16:52 PM 41.5690 -88.5620 62° Northeast 332 382 11,100 -212 Level FlightAware ADS-B
Sun 05:17:32 PM 41.5980 -88.4920 61° Northeast 309 356 10,800 -675 Descending FlightAware ADS-B
Sun 05:18:12 PM 41.6290 -88.4330 55° Northeast 288 331 10,200 -1,200 Descending FlightAware ADS-B
Sun 05:18:42 PM 41.6540 -88.3910 51° Northeast 287 330 9,400 -1,600 Descending FlightAware ADS-B
Sun 05:18:57 PM 41.6650 -88.3720 52° Northeast 288 331 9,000 -1,500 Descending FlightAware ADS-B
Sun 05:19:22 PM 41.6880 -88.3380 48° Northeast 282 325 8,400 -1,350 Descending FlightAware ADS-B
Sun 05:19:37 PM 41.7050 -88.3260 28° Northeast 278 320 8,100 -533 Descending FlightAware ADS-B
Sun 05:20:07 PM 41.7410 -88.3160 12° North 268 308 8,000 -873 Descending FlightAware ADS-B
Sun 05:20:32 PM 41.7730 -88.3090 North 268 308 7,300 -982 Descending FlightAware ADS-B
Sun 05:21:02 PM 41.8090 -88.3020 North 261 300 7,100 -267 Descending FlightAware ADS-B
Sun 05:21:17 PM 41.8250 -88.2980 11° North 259 298 7,100 -900 Level FlightAware ADS-B
Sun 05:21:42 PM 41.8560 -88.2910 10° North 262 302 6,500 -1,200 Descending FlightAware ADS-B
Sun 05:21:57 PM 41.8740 -88.2880 North 257 296 6,300 -533 Descending FlightAware ADS-B
Sun 05:22:27 PM 41.9070 -88.2800 10° North 236 272 6,100 -545 Descending FlightAware ADS-B
Sun 05:22:52 PM 41.9330 -88.2740 10° North 225 259 5,800 -750 Descending FlightAware ADS-B
Sun 05:23:07 PM 41.9470 -88.2660 23° Northeast 224 258 5,600 -1,000 Descending FlightAware ADS-B
Sun 05:23:22 PM 41.9590 -88.2500 45° Northeast 225 259 5,300 -1,050 Descending FlightAware ADS-B
Sun 05:23:47 PM 41.9680 -88.2190 69° East 225 259 4,900 -1,050 Descending FlightAware ADS-B
Sun 05:24:02 PM 41.9700 -88.2000 82° East 228 262 4,600 -1,067 Descending FlightAware ADS-B
Sun 05:24:32 PM 41.9680 -88.1540 93° East 228 262 4,100 -960 Descending FlightAware ADS-B
Sun 05:25:17 PM 41.9690 -88.0970 89° East 208 239 3,400 -1,114 Descending FlightAware ADS-B
Sun 05:25:42 PM 41.9690 -88.0660 90° East 204 235 2,800 -1,440 Descending FlightAware ADS-B
Sun 05:26:07 PM 41.9690 -88.0330 90° East 183 211 2,200 -1,091 Descending FlightAware ADS-B
Sun 05:26:37 PM 41.9690 -88.0020 90° East 152 175 1,800 -720 Descending FlightAware ADS-B
Sun 05:26:57 PM 41.9690 -87.9870 90° East 143 165 1,600 -764 Descending FlightAware ADS-B
Sun 05:27:32 PM 41.9690 -87.9530 90° East 142 163 1,100 -800 Descending FlightAware ADS-B
Sun 05:27:57 PM 41.9690 -87.9340 90° East 136 157 800 -720 Descending FlightAware ADS-B

Login

Don't have an account? Register now (free) for customized features, flight alerts, and more!